sensor_id;sensor_type;location;lat;lon;timestamp;P1;durP1;ratioP1;P2;durP2;ratioP2
28245;SDS011;15510;52.512;13.300;2023-05-23T00:00:25;6.85;;;3.03;;
28245;SDS011;15510;52.512;13.300;2023-05-23T00:02:50;3.63;;;3.00;;
28245;SDS011;15510;52.512;13.300;2023-05-23T00:05:16;4.13;;;3.00;;
28245;SDS011;15510;52.512;13.300;2023-05-23T00:07:43;4.85;;;2.90;;
28245;SDS011;15510;52.512;13.300;2023-05-23T00:10:09;5.55;;;3.10;;
28245;SDS011;15510;52.512;13.300;2023-05-23T00:12:35;6.93;;;2.90;;
28245;SDS011;15510;52.512;13.300;2023-05-23T00:15:06;6.70;;;3.13;;
28245;SDS011;15510;52.512;13.300;2023-05-23T00:17:34;11.75;;;3.15;;
28245;SDS011;15510;52.512;13.300;2023-05-23T00:20:04;7.57;;;3.00;;
28245;SDS011;15510;52.512;13.300;2023-05-23T00:22:33;5.90;;;3.38;;
28245;SDS011;15510;52.512;13.300;2023-05-23T00:25:00;3.30;;;2.97;;
28245;SDS011;15510;52.512;13.300;2023-05-23T00:27:26;3.22;;;2.70;;
28245;SDS011;15510;52.512;13.300;2023-05-23T00:29:53;3.50;;;2.83;;
28245;SDS011;15510;52.512;13.300;2023-05-23T00:32:18;6.05;;;2.97;;
28245;SDS011;15510;52.512;13.300;2023-05-23T00:34:44;4.72;;;2.60;;
28245;SDS011;15510;52.512;13.300;2023-05-23T00:37:10;4.95;;;2.90;;
28245;SDS011;15510;52.512;13.300;2023-05-23T00:39:36;4.65;;;3.00;;
28245;SDS011;15510;52.512;13.300;2023-05-23T00:42:03;7.50;;;2.95;;
28245;SDS011;15510;52.512;13.300;2023-05-23T00:44:29;4.82;;;3.45;;
28245;SDS011;15510;52.512;13.300;2023-05-23T00:46:55;4.35;;;3.28;;
28245;SDS011;15510;52.512;13.300;2023-05-23T00:49:22;5.85;;;3.10;;
28245;SDS011;15510;52.512;13.300;2023-05-23T00:51:52;4.57;;;2.75;;
28245;SDS011;15510;52.512;13.300;2023-05-23T00:54:19;4.20;;;3.05;;
28245;SDS011;15510;52.512;13.300;2023-05-23T00:56:53;4.97;;;3.22;;
28245;SDS011;15510;52.512;13.300;2023-05-23T00:59:20;4.32;;;2.83;;
28245;SDS011;15510;52.512;13.300;2023-05-23T01:01:47;5.40;;;2.92;;
28245;SDS011;15510;52.512;13.300;2023-05-23T01:04:14;4.03;;;3.30;;
28245;SDS011;15510;52.512;13.300;2023-05-23T01:06:40;6.68;;;2.72;;
28245;SDS011;15510;52.512;13.300;2023-05-23T01:09:11;3.95;;;3.00;;
28245;SDS011;15510;52.512;13.300;2023-05-23T01:14:46;7.15;;;3.10;;
28245;SDS011;15510;52.512;13.300;2023-05-23T01:17:25;4.50;;;3.08;;
28245;SDS011;15510;52.512;13.300;2023-05-23T01:20:07;4.35;;;3.00;;
28245;SDS011;15510;52.512;13.300;2023-05-23T01:28:40;6.35;;;2.83;;
28245;SDS011;15510;52.512;13.300;2023-05-23T01:31:10;5.60;;;3.08;;
28245;SDS011;15510;52.512;13.300;2023-05-23T01:33:38;5.40;;;3.40;;
28245;SDS011;15510;52.512;13.300;2023-05-23T01:36:05;7.97;;;3.38;;
28245;SDS011;15510;52.512;13.300;2023-05-23T01:38:35;5.32;;;2.55;;
28245;SDS011;15510;52.512;13.300;2023-05-23T01:41:01;3.97;;;3.25;;
28245;SDS011;15510;52.512;13.300;2023-05-23T01:43:26;4.13;;;3.20;;
28245;SDS011;15510;52.512;13.300;2023-05-23T01:45:52;5.75;;;3.30;;
28245;SDS011;15510;52.512;13.300;2023-05-23T01:48:20;5.35;;;3.22;;
28245;SDS011;15510;52.512;13.300;2023-05-23T01:50:47;4.72;;;3.42;;
28245;SDS011;15510;52.512;13.300;2023-05-23T01:53:15;4.65;;;3.42;;
28245;SDS011;15510;52.512;13.300;2023-05-23T01:55:45;6.57;;;3.25;;
28245;SDS011;15510;52.512;13.300;2023-05-23T01:58:12;4.30;;;3.08;;
28245;SDS011;15510;52.512;13.300;2023-05-23T02:00:41;3.45;;;3.10;;
28245;SDS011;15510;52.512;13.300;2023-05-23T02:03:08;6.32;;;3.25;;
28245;SDS011;15510;52.512;13.300;2023-05-23T02:05:34;6.20;;;3.20;;
28245;SDS011;15510;52.512;13.300;2023-05-23T02:08:00;5.15;;;3.22;;
28245;SDS011;15510;52.512;13.300;2023-05-23T02:10:26;7.95;;;2.97;;
28245;SDS011;15510;52.512;13.300;2023-05-23T02:12:51;6.93;;;3.10;;
28245;SDS011;15510;52.512;13.300;2023-05-23T02:15:17;6.22;;;3.67;;
28245;SDS011;15510;52.512;13.300;2023-05-23T02:17:43;5.30;;;3.05;;
28245;SDS011;15510;52.512;13.300;2023-05-23T02:20:09;8.32;;;3.38;;
28245;SDS011;15510;52.512;13.300;2023-05-23T02:22:35;10.13;;;3.65;;
28245;SDS011;15510;52.512;13.300;2023-05-23T02:25:01;5.75;;;3.38;;
28245;SDS011;15510;52.512;13.300;2023-05-23T02:27:27;5.40;;;2.90;;
28245;SDS011;15510;52.512;13.300;2023-05-23T02:29:53;5.68;;;3.15;;
28245;SDS011;15510;52.512;13.300;2023-05-23T02:32:18;7.95;;;3.30;;
28245;SDS011;15510;52.512;13.300;2023-05-23T02:34:44;4.75;;;3.10;;
28245;SDS011;15510;52.512;13.300;2023-05-23T02:37:14;5.18;;;3.33;;
28245;SDS011;15510;52.512;13.300;2023-05-23T02:39:46;3.63;;;3.22;;
28245;SDS011;15510;52.512;13.300;2023-05-23T02:42:12;4.30;;;2.97;;
28245;SDS011;15510;52.512;13.300;2023-05-23T02:44:38;5.32;;;3.15;;
28245;SDS011;15510;52.512;13.300;2023-05-23T02:47:05;6.82;;;3.38;;
28245;SDS011;15510;52.512;13.300;2023-05-23T02:49:32;8.63;;;3.50;;
28245;SDS011;15510;52.512;13.300;2023-05-23T02:51:58;4.53;;;3.00;;
28245;SDS011;15510;52.512;13.300;2023-05-23T02:54:24;7.13;;;3.42;;
28245;SDS011;15510;52.512;13.300;2023-05-23T02:56:50;7.50;;;3.88;;
28245;SDS011;15510;52.512;13.300;2023-05-23T02:59:17;4.40;;;3.45;;
28245;SDS011;15510;52.512;13.300;2023-05-23T03:01:46;5.68;;;3.60;;
28245;SDS011;15510;52.512;13.300;2023-05-23T03:04:12;7.40;;;3.33;;
28245;SDS011;15510;52.512;13.300;2023-05-23T03:06:38;4.93;;;3.35;;
28245;SDS011;15510;52.512;13.300;2023-05-23T03:09:07;3.72;;;3.17;;
28245;SDS011;15510;52.512;13.300;2023-05-23T03:11:33;4.75;;;3.35;;
28245;SDS011;15510;52.512;13.300;2023-05-23T03:14:00;3.30;;;2.88;;
28245;SDS011;15510;52.512;13.300;2023-05-23T03:16:25;6.00;;;3.65;;
28245;SDS011;15510;52.512;13.300;2023-05-23T03:18:51;5.70;;;3.72;;
28245;SDS011;15510;52.512;13.300;2023-05-23T03:21:17;5.28;;;3.60;;
28245;SDS011;15510;52.512;13.300;2023-05-23T03:23:42;7.38;;;3.55;;
28245;SDS011;15510;52.512;13.300;2023-05-23T03:26:08;6.82;;;3.80;;
28245;SDS011;15510;52.512;13.300;2023-05-23T03:28:34;9.07;;;4.00;;
28245;SDS011;15510;52.512;13.300;2023-05-23T03:31:00;4.97;;;3.10;;
28245;SDS011;15510;52.512;13.300;2023-05-23T03:33:26;5.13;;;3.88;;
28245;SDS011;15510;52.512;13.300;2023-05-23T03:35:52;4.20;;;3.42;;
28245;SDS011;15510;52.512;13.300;2023-05-23T03:38:21;5.95;;;3.75;;
28245;SDS011;15510;52.512;13.300;2023-05-23T03:40:47;7.57;;;3.95;;
28245;SDS011;15510;52.512;13.300;2023-05-23T03:43:13;4.05;;;3.65;;
28245;SDS011;15510;52.512;13.300;2023-05-23T03:45:41;7.13;;;3.78;;
28245;SDS011;15510;52.512;13.300;2023-05-23T03:48:11;4.93;;;3.83;;
28245;SDS011;15510;52.512;13.300;2023-05-23T03:50:38;8.93;;;4.00;;
28245;SDS011;15510;52.512;13.300;2023-05-23T03:53:05;5.90;;;3.78;;
28245;SDS011;15510;52.512;13.300;2023-05-23T03:55:31;4.82;;;3.90;;
28245;SDS011;15510;52.512;13.300;2023-05-23T03:57:57;6.90;;;3.65;;
28245;SDS011;15510;52.512;13.300;2023-05-23T04:00:23;11.85;;;3.80;;
28245;SDS011;15510;52.512;13.300;2023-05-23T04:02:51;9.55;;;3.95;;
28245;SDS011;15510;52.512;13.300;2023-05-23T04:05:19;6.35;;;3.60;;
28245;SDS011;15510;52.512;13.300;2023-05-23T04:07:47;5.65;;;3.72;;
28245;SDS011;15510;52.512;13.300;2023-05-23T04:10:13;4.22;;;3.30;;
28245;SDS011;15510;52.512;13.300;2023-05-23T04:12:43;6.15;;;4.32;;
28245;SDS011;15510;52.512;13.300;2023-05-23T04:15:13;5.80;;;3.80;;
28245;SDS011;15510;52.512;13.300;2023-05-23T04:17:49;4.85;;;3.75;;
28245;SDS011;15510;52.512;13.300;2023-05-23T04:20:16;7.22;;;4.20;;
28245;SDS011;15510;52.512;13.300;2023-05-23T04:22:42;4.10;;;3.70;;
28245;SDS011;15510;52.512;13.300;2023-05-23T04:25:08;4.63;;;3.65;;
28245;SDS011;15510;52.512;13.300;2023-05-23T04:27:40;7.82;;;3.78;;
28245;SDS011;15510;52.512;13.300;2023-05-23T04:30:07;4.95;;;3.97;;
28245;SDS011;15510;52.512;13.300;2023-05-23T04:32:35;6.60;;;4.47;;
28245;SDS011;15510;52.512;13.300;2023-05-23T04:35:02;4.90;;;4.28;;
28245;SDS011;15510;52.512;13.300;2023-05-23T04:37:31;6.22;;;3.72;;
28245;SDS011;15510;52.512;13.300;2023-05-23T04:39:58;9.50;;;4.25;;
28245;SDS011;15510;52.512;13.300;2023-05-23T04:42:59;9.15;;;4.50;;
28245;SDS011;15510;52.512;13.300;2023-05-23T04:45:33;8.32;;;4.25;;
28245;SDS011;15510;52.512;13.300;2023-05-23T04:48:08;11.82;;;4.32;;
28245;SDS011;15510;52.512;13.300;2023-05-23T04:50:40;8.48;;;4.05;;
28245;SDS011;15510;52.512;13.300;2023-05-23T04:53:12;4.82;;;4.05;;
28245;SDS011;15510;52.512;13.300;2023-05-23T04:55:39;10.52;;;5.70;;
28245;SDS011;15510;52.512;13.300;2023-05-23T04:58:10;8.73;;;4.53;;
28245;SDS011;15510;52.512;13.300;2023-05-23T05:00:37;8.32;;;4.22;;
28245;SDS011;15510;52.512;13.300;2023-05-23T05:03:03;8.32;;;3.72;;
28245;SDS011;15510;52.512;13.300;2023-05-23T05:05:29;8.35;;;4.47;;
28245;SDS011;15510;52.512;13.300;2023-05-23T05:07:55;11.40;;;4.00;;
28245;SDS011;15510;52.512;13.300;2023-05-23T05:10:21;6.68;;;4.25;;
28245;SDS011;15510;52.512;13.300;2023-05-23T05:12:46;11.15;;;4.00;;
28245;SDS011;15510;52.512;13.300;2023-05-23T05:15:16;6.65;;;4.20;;
28245;SDS011;15510;52.512;13.300;2023-05-23T05:17:45;5.68;;;4.40;;
28245;SDS011;15510;52.512;13.300;2023-05-23T05:20:14;10.55;;;4.40;;
28245;SDS011;15510;52.512;13.300;2023-05-23T05:22:41;5.30;;;4.15;;
28245;SDS011;15510;52.512;13.300;2023-05-23T05:25:10;9.18;;;4.65;;
28245;SDS011;15510;52.512;13.300;2023-05-23T05:27:36;6.57;;;4.25;;
28245;SDS011;15510;52.512;13.300;2023-05-23T05:30:05;5.55;;;4.05;;
28245;SDS011;15510;52.512;13.300;2023-05-23T05:32:39;8.65;;;5.07;;
28245;SDS011;15510;52.512;13.300;2023-05-23T05:35:06;7.70;;;4.32;;
28245;SDS011;15510;52.512;13.300;2023-05-23T05:37:33;6.28;;;3.85;;
28245;SDS011;15510;52.512;13.300;2023-05-23T05:39:59;7.78;;;4.72;;
28245;SDS011;15510;52.512;13.300;2023-05-23T05:42:31;9.55;;;4.90;;
28245;SDS011;15510;52.512;13.300;2023-05-23T05:44:56;14.10;;;5.47;;
28245;SDS011;15510;52.512;13.300;2023-05-23T05:47:24;13.20;;;4.97;;
28245;SDS011;15510;52.512;13.300;2023-05-23T05:49:51;18.52;;;5.22;;
28245;SDS011;15510;52.512;13.300;2023-05-23T05:52:17;13.40;;;4.45;;
28245;SDS011;15510;52.512;13.300;2023-05-23T05:54:42;10.10;;;4.75;;
28245;SDS011;15510;52.512;13.300;2023-05-23T05:57:08;14.80;;;4.35;;
28245;SDS011;15510;52.512;13.300;2023-05-23T05:59:34;9.75;;;4.30;;
28245;SDS011;15510;52.512;13.300;2023-05-23T06:02:00;11.00;;;5.22;;
28245;SDS011;15510;52.512;13.300;2023-05-23T06:04:26;12.18;;;4.75;;
28245;SDS011;15510;52.512;13.300;2023-05-23T06:06:52;8.43;;;4.55;;
28245;SDS011;15510;52.512;13.300;2023-05-23T06:09:18;8.10;;;4.22;;
28245;SDS011;15510;52.512;13.300;2023-05-23T06:11:44;8.50;;;4.47;;
28245;SDS011;15510;52.512;13.300;2023-05-23T06:14:09;14.25;;;4.38;;
28245;SDS011;15510;52.512;13.300;2023-05-23T06:16:39;7.53;;;4.05;;
28245;SDS011;15510;52.512;13.300;2023-05-23T06:19:05;6.30;;;4.32;;
28245;SDS011;15510;52.512;13.300;2023-05-23T06:21:30;8.82;;;4.78;;
28245;SDS011;15510;52.512;13.300;2023-05-23T06:23:57;9.27;;;4.63;;
28245;SDS011;15510;52.512;13.300;2023-05-23T06:26:23;9.45;;;4.47;;
28245;SDS011;15510;52.512;13.300;2023-05-23T06:28:51;51.95;;;7.05;;
28245;SDS011;15510;52.512;13.300;2023-05-23T06:31:16;10.52;;;4.25;;
28245;SDS011;15510;52.512;13.300;2023-05-23T06:33:45;5.03;;;4.20;;
28245;SDS011;15510;52.512;13.300;2023-05-23T06:36:15;10.07;;;4.40;;
28245;SDS011;15510;52.512;13.300;2023-05-23T06:38:41;16.70;;;5.53;;
28245;SDS011;15510;52.512;13.300;2023-05-23T06:41:09;10.88;;;4.78;;
28245;SDS011;15510;52.512;13.300;2023-05-23T06:43:36;12.45;;;6.05;;
28245;SDS011;15510;52.512;13.300;2023-05-23T06:46:12;12.57;;;4.18;;
28245;SDS011;15510;52.512;13.300;2023-05-23T06:48:37;10.95;;;5.07;;
28245;SDS011;15510;52.512;13.300;2023-05-23T06:51:06;11.70;;;5.45;;
28245;SDS011;15510;52.512;13.300;2023-05-23T06:53:32;16.27;;;4.97;;
28245;SDS011;15510;52.512;13.300;2023-05-23T06:55:58;9.63;;;4.60;;
28245;SDS011;15510;52.512;13.300;2023-05-23T06:58:24;8.00;;;4.93;;
28245;SDS011;15510;52.512;13.300;2023-05-23T07:00:53;17.45;;;5.53;;
28245;SDS011;15510;52.512;13.300;2023-05-23T07:03:25;21.27;;;5.55;;
28245;SDS011;15510;52.512;13.300;2023-05-23T07:05:54;17.67;;;8.27;;
28245;SDS011;15510;52.512;13.300;2023-05-23T07:08:28;9.73;;;5.88;;
28245;SDS011;15510;52.512;13.300;2023-05-23T07:10:57;12.38;;;5.05;;
28245;SDS011;15510;52.512;13.300;2023-05-23T07:13:35;6.97;;;4.57;;
28245;SDS011;15510;52.512;13.300;2023-05-23T07:16:02;7.22;;;4.95;;
28245;SDS011;15510;52.512;13.300;2023-05-23T07:18:29;11.10;;;4.65;;
28245;SDS011;15510;52.512;13.300;2023-05-23T07:20:56;10.05;;;4.20;;
28245;SDS011;15510;52.512;13.300;2023-05-23T07:23:22;11.05;;;5.95;;
28245;SDS011;15510;52.512;13.300;2023-05-23T07:25:49;8.07;;;4.07;;
28245;SDS011;15510;52.512;13.300;2023-05-23T07:28:26;6.55;;;4.53;;
28245;SDS011;15510;52.512;13.300;2023-05-23T07:30:53;7.22;;;4.10;;
28245;SDS011;15510;52.512;13.300;2023-05-23T07:33:25;7.93;;;4.18;;
28245;SDS011;15510;52.512;13.300;2023-05-23T07:35:56;7.00;;;4.40;;
28245;SDS011;15510;52.512;13.300;2023-05-23T07:38:21;14.00;;;4.10;;
28245;SDS011;15510;52.512;13.300;2023-05-23T07:40:47;4.70;;;3.97;;
28245;SDS011;15510;52.512;13.300;2023-05-23T07:43:13;12.82;;;7.75;;
28245;SDS011;15510;52.512;13.300;2023-05-23T07:45:39;10.55;;;5.53;;
28245;SDS011;15510;52.512;13.300;2023-05-23T07:48:04;21.17;;;4.55;;
28245;SDS011;15510;52.512;13.300;2023-05-23T07:50:30;9.90;;;6.15;;
28245;SDS011;15510;52.512;13.300;2023-05-23T07:52:56;11.52;;;4.85;;
28245;SDS011;15510;52.512;13.300;2023-05-23T07:55:27;9.43;;;4.70;;
28245;SDS011;15510;52.512;13.300;2023-05-23T07:57:53;7.72;;;4.63;;
28245;SDS011;15510;52.512;13.300;2023-05-23T08:00:20;9.63;;;4.10;;
28245;SDS011;15510;52.512;13.300;2023-05-23T08:02:53;5.20;;;3.88;;
28245;SDS011;15510;52.512;13.300;2023-05-23T08:05:24;7.85;;;4.40;;
28245;SDS011;15510;52.512;13.300;2023-05-23T08:07:53;9.20;;;5.05;;
28245;SDS011;15510;52.512;13.300;2023-05-23T08:10:19;9.68;;;4.45;;
28245;SDS011;15510;52.512;13.300;2023-05-23T08:12:46;8.27;;;4.70;;
28245;SDS011;15510;52.512;13.300;2023-05-23T08:15:14;8.55;;;4.68;;
28245;SDS011;15510;52.512;13.300;2023-05-23T08:17:44;16.80;;;8.25;;
28245;SDS011;15510;52.512;13.300;2023-05-23T08:20:10;11.73;;;4.82;;
28245;SDS011;15510;52.512;13.300;2023-05-23T08:22:38;5.90;;;4.80;;
28245;SDS011;15510;52.512;13.300;2023-05-23T08:25:04;9.95;;;5.07;;
28245;SDS011;15510;52.512;13.300;2023-05-23T08:27:33;8.07;;;4.75;;
28245;SDS011;15510;52.512;13.300;2023-05-23T08:30:05;11.02;;;4.82;;
28245;SDS011;15510;52.512;13.300;2023-05-23T08:32:33;7.53;;;4.85;;
28245;SDS011;15510;52.512;13.300;2023-05-23T08:34:59;6.13;;;4.38;;
28245;SDS011;15510;52.512;13.300;2023-05-23T08:37:25;8.48;;;4.70;;
28245;SDS011;15510;52.512;13.300;2023-05-23T08:39:51;6.88;;;4.50;;
28245;SDS011;15510;52.512;13.300;2023-05-23T08:42:29;6.30;;;3.88;;
28245;SDS011;15510;52.512;13.300;2023-05-23T08:44:56;5.85;;;4.32;;
28245;SDS011;15510;52.512;13.300;2023-05-23T08:47:22;6.47;;;4.50;;
28245;SDS011;15510;52.512;13.300;2023-05-23T08:49:52;13.27;;;4.38;;
28245;SDS011;15510;52.512;13.300;2023-05-23T08:52:21;7.00;;;4.53;;
28245;SDS011;15510;52.512;13.300;2023-05-23T08:54:54;4.50;;;4.10;;
28245;SDS011;15510;52.512;13.300;2023-05-23T08:57:21;9.75;;;4.40;;
28245;SDS011;15510;52.512;13.300;2023-05-23T08:59:53;6.90;;;4.47;;
28245;SDS011;15510;52.512;13.300;2023-05-23T09:02:21;5.07;;;3.88;;
28245;SDS011;15510;52.512;13.300;2023-05-23T09:04:48;6.97;;;4.82;;
28245;SDS011;15510;52.512;13.300;2023-05-23T09:07:18;12.55;;;5.00;;
28245;SDS011;15510;52.512;13.300;2023-05-23T09:09:45;6.50;;;3.72;;
28245;SDS011;15510;52.512;13.300;2023-05-23T09:12:13;6.57;;;4.70;;
28245;SDS011;15510;52.512;13.300;2023-05-23T09:14:40;5.43;;;3.88;;
28245;SDS011;15510;52.512;13.300;2023-05-23T09:17:07;9.57;;;4.68;;
28245;SDS011;15510;52.512;13.300;2023-05-23T09:19:33;9.32;;;4.53;;
28245;SDS011;15510;52.512;13.300;2023-05-23T09:22:15;6.93;;;4.32;;
28245;SDS011;15510;52.512;13.300;2023-05-23T09:24:56;4.68;;;4.28;;
28245;SDS011;15510;52.512;13.300;2023-05-23T09:27:22;6.25;;;4.60;;
28245;SDS011;15510;52.512;13.300;2023-05-23T09:29:49;6.75;;;4.68;;
28245;SDS011;15510;52.512;13.300;2023-05-23T09:32:17;7.35;;;5.32;;
28245;SDS011;15510;52.512;13.300;2023-05-23T09:34:54;9.82;;;4.65;;
28245;SDS011;15510;52.512;13.300;2023-05-23T09:37:41;8.68;;;4.80;;
28245;SDS011;15510;52.512;13.300;2023-05-23T09:40:10;11.02;;;4.45;;
28245;SDS011;15510;52.512;13.300;2023-05-23T09:42:45;8.38;;;4.82;;
28245;SDS011;15510;52.512;13.300;2023-05-23T09:45:12;6.07;;;4.40;;
28245;SDS011;15510;52.512;13.300;2023-05-23T09:47:38;6.72;;;4.93;;
28245;SDS011;15510;52.512;13.300;2023-05-23T09:50:13;7.32;;;4.93;;
28245;SDS011;15510;52.512;13.300;2023-05-23T09:52:38;8.68;;;4.65;;
28245;SDS011;15510;52.512;13.300;2023-05-23T09:55:05;8.02;;;5.57;;
28245;SDS011;15510;52.512;13.300;2023-05-23T09:57:35;10.63;;;5.53;;
28245;SDS011;15510;52.512;13.300;2023-05-23T10:00:04;5.90;;;5.30;;
28245;SDS011;15510;52.512;13.300;2023-05-23T10:07:51;6.32;;;5.72;;
28245;SDS011;15510;52.512;13.300;2023-05-23T10:10:16;9.30;;;6.18;;
28245;SDS011;15510;52.512;13.300;2023-05-23T10:12:46;6.18;;;5.60;;
28245;SDS011;15510;52.512;13.300;2023-05-23T10:15:15;6.93;;;6.32;;
28245;SDS011;15510;52.512;13.300;2023-05-23T10:20:24;8.85;;;6.50;;
28245;SDS011;15510;52.512;13.300;2023-05-23T10:22:50;7.05;;;6.35;;
28245;SDS011;15510;52.512;13.300;2023-05-23T10:25:17;8.65;;;6.28;;
28245;SDS011;15510;52.512;13.300;2023-05-23T10:27:43;9.70;;;6.93;;
28245;SDS011;15510;52.512;13.300;2023-05-23T10:30:09;7.47;;;6.25;;
28245;SDS011;15510;52.512;13.300;2023-05-23T10:32:37;8.70;;;6.95;;
28245;SDS011;15510;52.512;13.300;2023-05-23T10:37:33;9.70;;;8.20;;
28245;SDS011;15510;52.512;13.300;2023-05-23T10:45:22;9.63;;;7.38;;
28245;SDS011;15510;52.512;13.300;2023-05-23T10:47:49;10.27;;;7.55;;
28245;SDS011;15510;52.512;13.300;2023-05-23T10:50:32;8.63;;;7.82;;
28245;SDS011;15510;52.512;13.300;2023-05-23T10:53:00;9.68;;;8.77;;
28245;SDS011;15510;52.512;13.300;2023-05-23T10:55:30;11.63;;;10.13;;
28245;SDS011;15510;52.512;13.300;2023-05-23T11:00:54;12.02;;;10.80;;
28245;SDS011;15510;52.512;13.300;2023-05-23T11:03:29;12.18;;;10.98;;
28245;SDS011;15510;52.512;13.300;2023-05-23T11:06:29;12.00;;;10.32;;
28245;SDS011;15510;52.512;13.300;2023-05-23T11:09:04;12.25;;;10.95;;
28245;SDS011;15510;52.512;13.300;2023-05-23T11:11:52;13.88;;;11.23;;
28245;SDS011;15510;52.512;13.300;2023-05-23T11:15:04;13.50;;;10.32;;
28245;SDS011;15510;52.512;13.300;2023-05-23T11:19:36;13.20;;;10.80;;
28245;SDS011;15510;52.512;13.300;2023-05-23T11:22:03;16.17;;;12.85;;
28245;SDS011;15510;52.512;13.300;2023-05-23T11:24:51;14.98;;;11.95;;
28245;SDS011;15510;52.512;13.300;2023-05-23T11:29:57;15.77;;;13.43;;
28245;SDS011;15510;52.512;13.300;2023-05-23T11:32:24;18.25;;;14.50;;
28245;SDS011;15510;52.512;13.300;2023-05-23T11:34:53;15.32;;;13.77;;
28245;SDS011;15510;52.512;13.300;2023-05-23T11:37:19;15.77;;;14.05;;
28245;SDS011;15510;52.512;13.300;2023-05-23T11:39:45;16.38;;;13.95;;
28245;SDS011;15510;52.512;13.300;2023-05-23T11:42:11;16.90;;;13.68;;
28245;SDS011;15510;52.512;13.300;2023-05-23T11:44:36;17.83;;;14.23;;
28245;SDS011;15510;52.512;13.300;2023-05-23T11:47:03;17.35;;;14.32;;
28245;SDS011;15510;52.512;13.300;2023-05-23T11:49:31;18.08;;;13.88;;
28245;SDS011;15510;52.512;13.300;2023-05-23T11:51:58;15.43;;;13.57;;
28245;SDS011;15510;52.512;13.300;2023-05-23T11:54:26;16.00;;;13.93;;
28245;SDS011;15510;52.512;13.300;2023-05-23T11:56:53;16.83;;;13.40;;
28245;SDS011;15510;52.512;13.300;2023-05-23T11:59:25;18.17;;;14.38;;
28245;SDS011;15510;52.512;13.300;2023-05-23T12:01:52;17.48;;;13.63;;
28245;SDS011;15510;52.512;13.300;2023-05-23T12:04:18;14.80;;;11.57;;
28245;SDS011;15510;52.512;13.300;2023-05-23T12:06:48;18.05;;;13.50;;
28245;SDS011;15510;52.512;13.300;2023-05-23T12:09:14;15.90;;;12.13;;
28245;SDS011;15510;52.512;13.300;2023-05-23T12:11:41;13.32;;;11.93;;
28245;SDS011;15510;52.512;13.300;2023-05-23T12:14:08;15.00;;;12.95;;
28245;SDS011;15510;52.512;13.300;2023-05-23T12:16:38;19.50;;;13.30;;
28245;SDS011;15510;52.512;13.300;2023-05-23T12:19:07;14.05;;;11.68;;
28245;SDS011;15510;52.512;13.300;2023-05-23T12:21:39;17.55;;;13.00;;
28245;SDS011;15510;52.512;13.300;2023-05-23T12:26:45;15.57;;;12.90;;
28245;SDS011;15510;52.512;13.300;2023-05-23T12:29:27;14.68;;;12.63;;
28245;SDS011;15510;52.512;13.300;2023-05-23T12:31:57;17.73;;;11.90;;
28245;SDS011;15510;52.512;13.300;2023-05-23T12:34:24;15.93;;;12.05;;
28245;SDS011;15510;52.512;13.300;2023-05-23T12:36:53;13.98;;;11.18;;
28245;SDS011;15510;52.512;13.300;2023-05-23T12:39:24;11.65;;;9.43;;
28245;SDS011;15510;52.512;13.300;2023-05-23T12:41:53;11.45;;;9.50;;
28245;SDS011;15510;52.512;13.300;2023-05-23T12:44:25;9.90;;;8.90;;
28245;SDS011;15510;52.512;13.300;2023-05-23T12:46:55;9.55;;;8.38;;
28245;SDS011;15510;52.512;13.300;2023-05-23T12:49:20;10.38;;;8.40;;
28245;SDS011;15510;52.512;13.300;2023-05-23T12:51:46;10.05;;;8.40;;
28245;SDS011;15510;52.512;13.300;2023-05-23T12:54:12;9.43;;;8.52;;
28245;SDS011;15510;52.512;13.300;2023-05-23T12:56:37;11.65;;;8.48;;
28245;SDS011;15510;52.512;13.300;2023-05-23T12:59:03;9.57;;;8.43;;
28245;SDS011;15510;52.512;13.300;2023-05-23T13:01:29;10.50;;;8.82;;
28245;SDS011;15510;52.512;13.300;2023-05-23T13:03:55;10.38;;;9.20;;
28245;SDS011;15510;52.512;13.300;2023-05-23T13:06:21;13.98;;;10.07;;
28245;SDS011;15510;52.512;13.300;2023-05-23T13:08:46;13.00;;;11.30;;
28245;SDS011;15510;52.512;13.300;2023-05-23T13:11:14;30.27;;;26.95;;
28245;SDS011;15510;52.512;13.300;2023-05-23T13:13:41;15.13;;;12.55;;
28245;SDS011;15510;52.512;13.300;2023-05-23T13:16:06;18.20;;;13.13;;
28245;SDS011;15510;52.512;13.300;2023-05-23T13:18:33;14.25;;;11.45;;
28245;SDS011;15510;52.512;13.300;2023-05-23T13:20:59;13.18;;;11.88;;
28245;SDS011;15510;52.512;13.300;2023-05-23T13:23:25;14.77;;;13.20;;
28245;SDS011;15510;52.512;13.300;2023-05-23T13:25:51;15.80;;;13.75;;
28245;SDS011;15510;52.512;13.300;2023-05-23T13:28:17;16.55;;;13.02;;
28245;SDS011;15510;52.512;13.300;2023-05-23T13:30:43;18.23;;;14.02;;
28245;SDS011;15510;52.512;13.300;2023-05-23T13:35:42;19.00;;;13.20;;
28245;SDS011;15510;52.512;13.300;2023-05-23T13:38:17;16.25;;;12.85;;
28245;SDS011;15510;52.512;13.300;2023-05-23T13:40:44;18.60;;;12.70;;
28245;SDS011;15510;52.512;13.300;2023-05-23T13:43:10;15.57;;;12.35;;
28245;SDS011;15510;52.512;13.300;2023-05-23T13:45:35;17.27;;;13.40;;
28245;SDS011;15510;52.512;13.300;2023-05-23T13:48:01;17.98;;;12.27;;
28245;SDS011;15510;52.512;13.300;2023-05-23T13:50:27;15.38;;;11.60;;
28245;SDS011;15510;52.512;13.300;2023-05-23T13:52:53;17.60;;;13.18;;
28245;SDS011;15510;52.512;13.300;2023-05-23T13:55:19;19.40;;;13.65;;
28245;SDS011;15510;52.512;13.300;2023-05-23T13:57:45;20.02;;;13.98;;
28245;SDS011;15510;52.512;13.300;2023-05-23T14:00:11;16.20;;;13.15;;
28245;SDS011;15510;52.512;13.300;2023-05-23T14:02:39;17.15;;;12.43;;
28245;SDS011;15510;52.512;13.300;2023-05-23T14:05:12;16.35;;;13.35;;
28245;SDS011;15510;52.512;13.300;2023-05-23T14:07:37;18.50;;;14.32;;
28245;SDS011;15510;52.512;13.300;2023-05-23T14:10:07;18.80;;;13.43;;
28245;SDS011;15510;52.512;13.300;2023-05-23T14:12:36;17.55;;;14.52;;
28245;SDS011;15510;52.512;13.300;2023-05-23T14:15:03;19.85;;;14.90;;
28245;SDS011;15510;52.512;13.300;2023-05-23T14:17:30;16.55;;;13.75;;
28245;SDS011;15510;52.512;13.300;2023-05-23T14:19:55;18.45;;;13.85;;
28245;SDS011;15510;52.512;13.300;2023-05-23T14:22:22;17.67;;;14.50;;
28245;SDS011;15510;52.512;13.300;2023-05-23T14:24:49;17.83;;;13.98;;
28245;SDS011;15510;52.512;13.300;2023-05-23T14:27:15;19.25;;;13.85;;
28245;SDS011;15510;52.512;13.300;2023-05-23T14:29:42;18.88;;;14.20;;
28245;SDS011;15510;52.512;13.300;2023-05-23T14:32:11;20.38;;;14.48;;
28245;SDS011;15510;52.512;13.300;2023-05-23T14:34:37;17.85;;;14.38;;
28245;SDS011;15510;52.512;13.300;2023-05-23T14:37:07;19.35;;;14.57;;
28245;SDS011;15510;52.512;13.300;2023-05-23T14:39:33;19.45;;;13.65;;
28245;SDS011;15510;52.512;13.300;2023-05-23T14:42:00;18.67;;;13.98;;
28245;SDS011;15510;52.512;13.300;2023-05-23T14:44:38;22.00;;;18.88;;
28245;SDS011;15510;52.512;13.300;2023-05-23T14:47:05;18.13;;;13.18;;
28245;SDS011;15510;52.512;13.300;2023-05-23T14:49:30;20.85;;;16.67;;
28245;SDS011;15510;52.512;13.300;2023-05-23T14:51:56;14.75;;;13.15;;
28245;SDS011;15510;52.512;13.300;2023-05-23T14:54:22;15.85;;;11.85;;
28245;SDS011;15510;52.512;13.300;2023-05-23T14:56:50;11.60;;;9.95;;
28245;SDS011;15510;52.512;13.300;2023-05-23T14:59:22;8.98;;;8.05;;
28245;SDS011;15510;52.512;13.300;2023-05-23T15:01:48;9.07;;;6.57;;
28245;SDS011;15510;52.512;13.300;2023-05-23T15:04:17;8.10;;;5.93;;
28245;SDS011;15510;52.512;13.300;2023-05-23T15:06:43;9.90;;;5.85;;
28245;SDS011;15510;52.512;13.300;2023-05-23T15:09:09;7.40;;;5.82;;